Lawrenceville, Arkansas
Current Conditions -  °F | °C
As of 12:55 AM on Sunday 26 Oct 2014 (Local Time) from KSGT Reporting Station
Clear Clear  
Wind Chill: 64°   Ceiling: Unl
Heat Index: 64°   Visibility: 6mi
Dew Point: 61°   Wind: 8mph
Humidity: 88%   Direction: 190°S
Pressure: 30.03"   Gusts: NA
Location:  34.5919°N, 91.1409°W
Report Text: KSGT 260555Z AUTO 19007KT 6SM CLR 18/16 A3003 RMK AO1 10220 20180 57007
Loading
Personal Weather Stations






























Interactive Weather Map
Tropical Storm Tracking
New forecast layout! Learn more

10-Day Weather Forecast

Advertisements
Track Severe Weather on mobile